EW6338 Weather Reports


Display with metric or nautical units.
time (UTC)temp
F
wind
direction
speed
MPH
gust
MPH
rain 1hr
in
rain 24hr
in
rain mn
in
humidity
%
barometer
mb
20190918030210 56 297 0.0 0.0 0.00 0.00 0.00 91 1021.8
20190918024819 55 296 0.0 0.0 0.00 0.00 0.00 91 1021.7
20190918023116 56 296 0.0 0.0 0.00 0.00 0.00 91 1021.6
20190918021554 56 296 0.0 0.0 0.00 0.00 0.00 91 1021.4
20190918020215 56 296 0.0 0.0 0.00 0.00 0.00 91 1021.4
20190918014833 56 296 0.0 0.0 0.00 0.00 0.00 90 1021.1
20190918013235 56 296 0.0 0.0 0.00 0.00 0.00 90 1021.0
20190918011644 56 296 0.0 0.0 0.00 0.00 0.00 90 1021.0
20190918010201 56 296 0.0 0.0 0.00 0.00 0.00 90 1020.9
20190918004654 56 296 0.0 0.0 0.00 0.00 0.00 89 1020.9
20190918003113 56 296 0.0 0.0 0.00 0.00 0.00 89 1020.8
20190918001643 56 296 0.0 0.0 0.00 0.00 0.00 88 1020.6
20190918000115 56 296 0.0 0.0 0.00 0.00 0.00 88 1020.5
20190917234624 56 296 0.0 0.0 0.00 0.00 0.00 88 1020.4
20190917233113 57 296 0.0 0.0 0.00 0.00 0.00 87 1020.2
20190917231554 57 296 0.0 0.0 0.00 0.00 0.00 86 1020.0
20190917230055 57 296 0.0 0.0 0.00 0.00 0.00 85 1019.9
20190917224644 58 296 0.0 0.0 0.00 0.00 0.00 84 1019.9
20190917223049 58 296 0.0 0.0 0.00 0.00 0.00 84 1019.8
20190917221614 59 296 0.0 0.0 0.00 0.00 0.00 83 1019.7
20190917220053 60 296 0.0 0.0 0.00 0.00 0.00 82 1019.6
20190917214544 60 296 0.0 0.0 0.00 0.00 0.00 80 1019.5
20190917213113 61 296 0.0 0.0 0.00 0.00 0.00 76 1019.5
20190917211543 62 296 0.0 1.0 0.00 0.00 0.00 73 1019.5
20190917210050 63 351 0.0 1.0 0.00 0.00 0.00 71 1019.5
20190917204551 63 94 0.0 1.0 0.00 0.00 0.00 72 1019.6
20190917203151 64 128 0.0 2.0 0.00 0.00 0.00 68 1019.5
20190917201634 64 117 0.0 1.0 0.00 0.00 0.00 73 1019.5
20190917200113 64 92 0.0 3.0 0.00 0.00 0.00 75 1019.5
20190917194600 64 37 0.0 0.0 0.00 0.00 0.00 73 1019.6
20190917193034 65 148 0.0 3.0 0.00 0.00 0.00 73 1019.4
20190917191615 64 140 0.0 3.0 0.00 0.00 0.00 74 1019.4
20190917190041 66 115 0.0 1.0 0.00 0.00 0.00 72 1019.4
20190917184552 66 111 0.0 1.0 0.00 0.00 0.00 70 1019.5
20190917183054 66 77 0.0 1.0 0.00 0.00 0.00 70 1019.6
20190917181556 67 39 0.0 5.0 0.00 0.00 0.00 70 1019.6
20190917180059 66 65 0.0 3.0 0.00 0.00 0.00 72 1019.4
20190917174552 66 98 0.0 1.0 0.00 0.00 0.00 71 1019.5
20190917173029 66 52 0.0 1.0 0.00 0.00 0.00 69 1019.3
20190917171536 64 45 0.0 2.0 0.00 0.00 0.00 71 1019.5
20190917170044 65 28 0.0 2.0 0.00 0.00 0.00 71 1019.5
20190917164530 66 46 0.0 2.0 0.00 0.00 0.00 67 1019.5
20190917163040 65 103 0.0 0.0 0.00 0.00 0.00 66 1019.6
20190917161542 68 321 0.0 3.0 0.00 0.00 0.00 62 1019.4
20190917160037 67 139 0.0 2.0 0.00 0.00 0.00 67 1019.5
20190917154521 68 333 0.0 4.0 0.00 0.00 0.00 64 1019.5
20190917153022 65 42 0.0 2.0 0.00 0.00 0.00 66 1019.5
20190917151523 65 93 0.0 4.0 0.00 0.00 0.00 65 1019.5
20190917150019 65 87 0.0 1.0 0.00 0.00 0.00 66 1019.5
20190917144534 66 335 0.0 3.0 0.00 0.00 0.00 63 1019.4
20190917143007 65 24 0.0 2.0 0.00 0.00 0.00 63 1019.4
20190917141513 65 53 0.0 2.0 0.00 0.00 0.00 64 1019.3
20190917140033 64 54 0.0 1.0 0.00 0.00 0.00 64 1019.3
20190917134641 64 97 0.0 0.0 0.00 0.00 0.00 67 1019.2
20190917133132 63 39 0.0 2.0 0.00 0.00 0.00 67 1019.1
20190917131644 62 253 0.0 1.0 0.00 0.00 0.00 73 1018.9
20190917130131 61 42 0.0 2.0 0.00 0.00 0.00 75 1018.9
20190917124641 59 97 0.0 1.0 0.00 0.00 0.00 76 1018.8
20190917123139 58 246 0.0 0.0 0.00 0.00 0.00 80 1018.7
20190917121748 56 231 0.0 1.0 0.00 0.00 0.00 82 1018.7
20190917120132 55 77 0.0 1.0 0.00 0.00 0.00 84 1018.5
20190917114641 51 5 0.0 0.0 0.00 0.00 0.00 91 1018.2
20190917113045 49 5 0.0 0.0 0.00 0.00 0.00 91 1018.3
20190917111602 49 5 0.0 0.0 0.00 0.00 0.00 92 1018.3
20190917110055 48 5 0.0 0.0 0.00 0.00 0.00 92 1018.2
20190917104535 48 5 0.0 0.0 0.00 0.00 0.00 92 1017.9
20190917103054 48 5 0.0 0.0 0.00 0.00 0.00 92 1017.8
20190917101540 48 5 0.0 0.0 0.00 0.00 0.00 92 1017.6
20190917100031 48 5 0.0 0.0 0.00 0.00 0.00 92 1017.4
20190917094528 48 5 0.0 0.0 0.00 0.00 0.00 93 1017.1
20190917093027 48 5 0.0 0.0 0.00 0.00 0.00 93 1017.0
20190917091521 48 5 0.0 0.0 0.00 0.00 0.00 94 1017.0
20190917090039 48 5 0.0 0.0 0.00 0.00 0.00 94 1016.9
20190917084534 47 5 0.0 0.0 0.00 0.00 0.00 93 1016.9
20190917083013 48 5 0.0 0.0 0.00 0.00 0.00 93 1016.9
20190917081533 48 5 0.0 0.0 0.00 0.00 0.00 93 1016.9
20190917080025 48 5 0.0 0.0 0.00 0.00 0.00 93 1016.9
20190917074532 48 5 0.0 0.0 0.00 0.00 0.00 92 1017.0
20190917073007 48 5 0.0 0.0 0.00 0.00 0.00 92 1017.1
20190917071511 48 5 0.0 0.0 0.00 0.00 0.00 92 1017.1
20190917070014 49 5 0.0 0.0 0.00 0.00 0.00 92 1017.2
20190917064533 49 5 0.0 0.0 0.00 0.01 0.00 92 1017.2
20190917063003 49 5 0.0 0.0 0.00 0.01 0.00 92 1017.1
20190917061502 49 5 0.0 0.0 0.00 0.01 0.00 92 1017.2
20190917060238 49 5 0.0 0.0 0.00 0.01 0.00 92 1017.2
20190917054656 49 5 0.0 0.0 0.00 0.01 0.00 91 1017.2
20190917053150 49 5 0.0 0.0 0.00 0.01 0.00 91 1017.1
20190917051700 49 5 0.0 0.0 0.00 0.01 0.00 91 1017.2
20190917050145 49 5 0.0 0.0 0.00 0.01 0.00 90 1017.3
20190917044726 49 5 0.0 0.0 0.00 0.01 0.00 89 1017.1
20190917043226 50 5 0.0 0.0 0.00 0.01 0.00 89 1017.0
20190917041649 50 5 0.0 0.0 0.00 0.01 0.00 89 1017.0
20190917040134 50 5 0.0 0.0 0.00 0.01 0.00 90 1017.0
20190917034629 50 5 0.0 0.0 0.00 0.01 0.01 90 1017.0
20190917033133 50 5 0.0 0.0 0.00 0.01 0.01 89 1016.9
20190917031603 51 5 0.0 0.0 0.00 0.01 0.01 89 1017.0